Latest Weather Observations for Cairns

IDQ60801

Issued at 8:12 pm EST Friday 13 December 2019 (issued every 10 minutes, with the page automatically refreshed every 10 minutes)

About weather observations | Map of weather stations | Latest weather observations for QLD | Other Formats
Station Details ID: 031011 Name: CAIRNS AERO Lat: -16.87 Lon: 145.75 Height: 2.22 m
Data from the previous 72 hours. | See also: Recent months at Cairns
Date/Time
EST
Temp
°C
App
Temp
°C
Dew
Point
°C
Rel
Hum
%
Delta-T
°C
Wind Press
QNH
hPa
Press
MSL
hPa
Rain since
9am
mm
Dir  Spd
km/h
Gust
km/h
Spd
kts
Gust
kts
13/08:00pm 25.7 30.6 22.4 82 2.2 CALM 0 0 0 0 1009.6 1009.6 0.0
13/07:30pm 26.3 31.1 22.8 81 2.4 NW 2 4 1 2 1009.0 1009.0 0.0
13/07:00pm 26.5 30.6 22.3 78 2.8 NNW 4 6 2 3 1008.5 1008.5 0.0
13/06:30pm 27.1 30.7 22.3 75 3.2 N 7 13 4 7 1008.1 1008.1 0.0
13/06:00pm 28.2 31.1 22.4 71 3.9 N 11 15 6 8 1008.0 1008.0 0.0
13/05:30pm 28.8 31.6 22.3 68 4.4 NNE 11 17 6 9 1008.0 1008.0 0.0
13/05:00pm 29.3 32.0 22.8 68 4.4 NNE 13 19 7 10 1008.1 1008.1 0.0
13/04:30pm 30.1 32.4 22.0 62 5.5 N 13 20 7 11 1007.8 1007.8 0.0
13/04:00pm 29.6 31.0 21.8 63 5.3 NE 17 20 9 11 1007.8 1007.8 0.0
13/03:30pm 29.9 31.3 21.8 62 5.5 NNE 17 26 9 14 1007.9 1007.9 0.0
13/03:00pm 30.6 32.6 23.0 64 5.2 N 17 22 9 12 1008.4 1008.4 0.0
13/02:30pm 30.5 32.4 22.1 61 5.7 NE 15 22 8 12 1008.5 1008.5 0.0
13/02:00pm 30.5 32.6 22.4 62 5.5 NE 15 26 8 14 1008.8 1008.8 0.0
13/01:30pm 31.0 32.9 22.0 58 6.1 NE 15 20 8 11 1009.0 1009.0 0.0
13/01:00pm 30.9 33.0 22.5 61 5.7 NNE 15 22 8 12 1009.4 1009.4 0.0
13/12:30pm 30.3 32.6 22.7 64 5.2 NE 15 20 8 11 1009.7 1009.7 0.0
13/12:00pm 30.2 32.0 22.6 63 5.2 NE 17 24 9 13 1010.1 1010.1 0.0
13/11:30am 30.0 32.0 22.9 65 4.9 NE 17 22 9 12 1010.4 1010.4 0.0
13/11:00am 30.7 32.1 22.6 62 5.5 NE 19 22 10 12 1010.5 1010.5 0.0
13/10:30am 31.4 33.2 21.8 56 6.5 ENE 15 22 8 12 1010.6 1010.6 0.0
13/10:00am 30.8 32.4 20.7 55 6.7 ESE 13 19 7 10 1010.8 1010.8 0.0
13/09:30am 31.0 33.6 21.2 56 6.6 SSE 9 15 5 8 1010.9 1010.9 0.0
13/09:00am 30.1 32.4 20.6 56 6.3 SE 9 19 5 10 1010.9 1010.9 2.6
13/08:30am 28.8 31.2 20.8 62 5.3 SSE 9 15 5 8 1010.9 1010.9 2.6
13/08:00am 27.3 30.8 21.1 69 4.1 NNE 4 6 2 3 1010.8 1010.8 2.6
13/07:30am 25.8 29.6 21.7 78 2.7 WNW 4 6 2 3 1010.8 1010.8 2.6
13/07:00am 25.3 28.9 21.2 78 2.7 SW 4 9 2 5 1010.9 1010.9 2.6
13/06:30am 24.1 26.6 21.0 83 2.0 SE 9 13 5 7 1010.5 1010.5 2.6
13/06:00am 23.1 27.0 21.2 89 1.2 S 2 7 1 4 1010.2 1010.2 2.6
13/05:30am 22.9 26.3 21.0 89 1.2 SSE 4 11 2 6 1009.7 1009.7 2.6
13/05:00am 23.1 26.5 21.0 88 1.4 SE 4 6 2 3 1009.3 1009.3 2.6
13/04:30am 23.3 26.6 20.8 86 1.6 SE 4 9 2 5 1009.3 1009.3 2.6
13/04:00am 23.6 26.1 21.1 86 1.6 SE 9 17 5 9 1009.3 1009.3 2.6
13/03:30am 24.3 26.8 21.0 82 2.2 S 9 17 5 9 1009.1 1009.1 2.6
13/03:00am 23.9 27.3 21.6 87 1.5 SSE 6 11 3 6 1009.1 1009.1 2.6
13/02:30am 23.9 28.4 21.6 87 1.5 CALM 0 0 0 0 1009.1 1009.1 2.6
13/02:00am 23.9 27.3 21.0 84 1.9 N 4 6 2 3 1009.2 1009.2 2.6
13/01:30am 24.8 27.6 21.5 82 2.2 SSE 9 13 5 7 1009.3 1009.3 2.6
13/01:00am 24.6 27.6 21.9 85 1.8 SE 9 15 5 8 1009.4 1009.4 2.6
13/12:30am 24.9 27.4 21.8 83 2.1 SSE 11 17 6 9 1009.8 1009.8 2.6
13/12:00am 25.5 28.7 22.4 83 2.1 SSE 9 17 5 9 1010.1 1010.1 2.6
 
Date/Time
EST
Temp
°C
App
Temp
°C
Dew
Point
°C
Rel
Hum
%
Delta-T
°C
Wind Press
QNH
hPa
Press
MSL
hPa
Rain since
9am
mm
Dir  Spd
km/h
Gust
km/h
Spd
kts
Gust
kts
12/11:30pm 25.6 28.9 22.5 83 2.1 S 9 13 5 7 1010.6 1010.6 2.6
12/11:00pm 26.2 30.0 22.7 81 2.4 S 7 15 4 8 1010.8 1010.8 2.6
12/10:30pm 26.2 30.1 22.5 80 2.5 SSW 6 15 3 8 1010.9 1010.9 2.6
12/10:00pm 25.8 30.3 22.3 81 2.4 SW 2 6 1 3 1010.8 1010.8 2.6
12/09:30pm 26.2 30.7 22.3 79 2.6 S 2 7 1 4 1010.1 1010.1 2.6
12/09:00pm 26.5 30.2 22.3 78 2.8 S 6 11 3 6 1010.0 1010.0 2.6
12/08:30pm 26.6 30.6 22.7 79 2.6 S 6 11 3 6 1009.8 1009.8 2.6
12/08:00pm 26.7 30.5 22.8 79 2.6 SSE 7 15 4 8 1009.7 1009.7 2.6
12/07:30pm 27.2 31.0 22.8 77 3.0 SSE 7 17 4 9 1009.6 1009.6 2.6
12/07:00pm 27.5 30.2 22.2 73 3.6 SE 11 15 6 8 1009.2 1009.2 2.6
12/06:30pm 28.1 28.7 22.1 70 4.0 SE 22 30 12 16 1008.9 1008.9 2.6
12/06:00pm 28.8 29.9 22.3 68 4.4 SE 20 28 11 15 1008.6 1008.6 2.6
12/05:30pm 29.5 30.4 22.0 64 5.1 SE 20 26 11 14 1008.3 1008.3 2.6
12/05:00pm 30.2 31.1 21.6 60 5.8 ESE 19 26 10 14 1008.0 1008.0 2.6
12/04:30pm 30.6 31.8 22.2 61 5.7 ENE 19 26 10 14 1007.5 1007.5 2.6
12/04:00pm 30.7 31.7 21.8 59 6.0 E 19 24 10 13 1007.6 1007.6 2.6
12/03:30pm 32.1 33.5 22.5 57 6.6 E 19 26 10 14 1007.7 1007.7 2.6
12/03:00pm 30.6 32.2 21.4 58 6.2 ESE 15 20 8 11 1007.9 1007.9 2.6
12/02:30pm 31.2 33.4 21.9 57 6.3 ESE 13 19 7 10 1008.3 1008.3 2.6
12/02:00pm 31.2 32.6 21.9 57 6.3 SE 17 22 9 12 1008.6 1008.6 2.6
12/01:30pm 30.4 31.9 22.0 60 5.7 SE 17 24 9 13 1008.9 1008.9 2.6
12/01:00pm 31.4 32.5 22.4 59 6.1 SE 20 28 11 15 1009.2 1009.2 2.6
12/12:30pm 30.2 31.1 22.6 63 5.2 ESE 22 32 12 17 1009.6 1009.6 2.6
12/12:00pm 30.3 31.6 22.7 64 5.2 SE 20 26 11 14 1009.7 1009.7 2.6
12/11:30am 28.1 29.9 24.3 80 2.6 SE 22 28 12 15 1010.0 1010.0 2.6
12/11:00am 30.0 31.4 22.9 65 4.9 ESE 20 28 11 15 1010.1 1010.1 2.4
12/10:30am 28.5 30.6 24.1 77 3.0 ESE 20 28 11 15 1010.3 1010.3 2.4
12/10:25am 28.2 30.7 24.4 80 2.6 ESE 19 28 10 15 1010.3 1010.3 2.4
12/10:00am 26.7 29.5 23.6 83 2.1 E 15 24 8 13 1010.7 1010.7 0.2
12/09:59am 26.7 29.1 23.0 80 2.5 E 15 24 8 13 1010.7 1010.7 0.0
12/09:30am 29.2 32.2 23.4 71 4.0 SE 13 19 7 10 1010.2 1010.2 0.0
12/09:14am 28.3 31.1 23.0 73 3.6 SE 13 19 7 10 1010.2 1010.2 0.0
12/09:04am 28.6 30.7 23.1 72 3.8 ESE 17 20 9 11 1010.1 1010.1 0.0
12/09:00am 29.0 31.3 23.4 72 3.8 SE 17 22 9 12 1010.1 1010.1 0.8
12/08:30am 27.7 30.0 23.5 78 2.9 SE 17 24 9 13 1010.1 1010.1 0.8
12/08:00am 27.3 30.4 23.5 80 2.6 SSE 13 19 7 10 1009.9 1009.9 0.8
12/07:30am 26.5 29.5 23.4 83 2.1 SSE 13 19 7 10 1009.8 1009.8 0.8
12/07:00am 25.9 29.7 23.4 86 1.7 SSE 9 15 5 8 1009.6 1009.6 0.8
12/06:30am 25.6 29.2 23.1 86 1.7 SSE 9 17 5 9 1009.2 1009.2 0.8
12/06:00am 25.5 29.2 23.2 87 1.6 SSE 9 15 5 8 1008.8 1008.8 0.8
12/05:52am 25.5 29.2 23.2 87 1.6 SSE 9 15 5 8 1008.7 1008.7 0.8
12/05:32am 25.5 29.2 23.2 87 1.6 SSE 9 17 5 9 1008.3 1008.3 0.8
12/05:30am 25.4 29.0 23.1 87 1.6 SE 9 17 5 9 1008.3 1008.3 0.8
12/05:00am 25.3 29.5 23.2 88 1.4 SSE 6 11 3 6 1007.8 1007.8 0.8
12/04:30am 25.3 28.2 23.2 88 1.4 SSE 13 20 7 11 1007.4 1007.4 0.8
12/04:00am 25.2 27.9 22.9 87 1.6 S 13 20 7 11 1007.2 1007.2 0.8
12/03:30am 25.2 28.2 23.3 89 1.3 S 13 20 7 11 1007.2 1007.2 0.8
12/03:00am 25.2 28.1 23.1 88 1.4 SSE 13 20 7 11 1007.3 1007.3 0.8
12/02:52am 25.3 28.5 23.0 87 1.6 SSE 11 17 6 9 1007.4 1007.4 0.8
12/02:38am 25.4 29.4 23.1 87 1.6 SSE 7 17 4 9 1007.4 1007.4 0.8
12/02:30am 25.4 29.0 23.1 87 1.6 SSE 9 17 5 9 1007.5 1007.5 0.8
12/02:00am 25.5 29.1 23.0 86 1.7 S 9 22 5 12 1008.1 1008.1 0.8
12/01:39am 25.5 29.1 23.0 86 1.7 SSE 9 19 5 10 1008.3 1008.3 0.8
12/01:30am 25.5 29.1 23.0 86 1.7 SSE 9 17 5 9 1008.5 1008.5 0.8
12/01:00am 25.4 27.8 22.9 86 1.7 SSE 15 20 8 11 1008.8 1008.8 0.8
12/12:30am 25.4 28.2 23.6 90 1.2 SE 15 19 8 10 1009.1 1009.1 0.8
12/12:00am 26.3 28.1 22.6 80 2.5 SSE 17 22 9 12 1009.4 1009.4 0.8
 
Date/Time
EST
Temp
°C
App
Temp
°C
Dew
Point
°C
Rel
Hum
%
Delta-T
°C
Wind Press
QNH
hPa
Press
MSL
hPa
Rain since
9am
mm
Dir  Spd
km/h
Gust
km/h
Spd
kts
Gust
kts
11/11:30pm 26.5 29.7 23.0 81 2.4 SSE 11 17 6 9 1010.0 1010.0 0.8
11/11:00pm 26.4 30.3 22.9 81 2.4 SSE 7 15 4 8 1010.4 1010.4 0.8
11/10:30pm 26.7 29.9 23.0 80 2.5 SSE 11 17 6 9 1010.7 1010.7 0.8
11/10:00pm 26.5 29.7 23.0 81 2.4 SSE 11 19 6 10 1010.5 1010.5 0.8
11/09:30pm 26.5 29.3 23.0 81 2.4 SSE 13 20 7 11 1010.2 1010.2 0.8
11/09:00pm 26.7 29.6 23.2 81 2.4 SSE 13 17 7 9 1009.7 1009.7 0.8
11/08:30pm 27.1 28.8 23.1 79 2.7 SE 19 24 10 13 1009.6 1009.6 0.8
11/08:00pm 27.1 28.8 23.1 79 2.7 SE 19 24 10 13 1009.6 1009.6 0.8
11/07:30pm 27.4 28.2 23.2 78 2.9 SE 24 28 13 15 1009.4 1009.4 0.8
11/07:00pm 27.8 29.3 23.0 75 3.3 SE 20 26 11 14 1009.3 1009.3 0.8
11/06:30pm 28.0 29.0 22.9 74 3.5 SE 22 28 12 15 1009.2 1009.2 0.8
11/06:00pm 28.6 29.4 23.1 72 3.8 SE 24 30 13 16 1008.6 1008.6 0.8
11/05:30pm 29.0 29.7 22.2 66 4.6 SE 22 28 12 15 1008.0 1008.0 0.8
11/05:00pm 30.1 29.7 22.3 63 5.3 SE 28 35 15 19 1007.6 1007.6 0.8
11/04:30pm 30.1 31.1 22.8 65 5.0 SE 22 33 12 18 1007.5 1007.5 0.8
11/04:00pm 30.5 31.0 22.7 63 5.3 ESE 24 30 13 16 1007.4 1007.4 0.8
11/03:30pm 31.2 31.9 23.0 61 5.6 ESE 24 33 13 18 1007.4 1007.4 0.8
11/03:00pm 31.1 30.5 22.7 61 5.8 SE 30 41 16 22 1007.7 1007.7 0.8
11/02:30pm 29.8 29.6 22.8 66 4.8 ESE 28 37 15 20 1008.2 1008.2 0.8
11/02:00pm 30.0 30.4 22.4 63 5.2 ESE 24 32 13 17 1008.4 1008.4 0.6
11/01:40pm 30.2 32.4 23.9 69 4.4 ESE 19 35 10 19 1008.7 1008.7 0.6
11/01:30pm 29.7 33.3 24.3 73 3.8 E 13 17 7 9 1008.9 1008.9 0.6
11/01:00pm 27.2 30.9 25.2 89 1.4 ENE 15 22 8 12 1009.3 1009.3 0.6
11/12:45pm 26.7 29.9 24.9 90 1.3 ENE 17 26 9 14 1009.5 1009.5 0.6
11/12:30pm 26.7 29.2 24.4 87 1.6 ENE 19 26 10 14 1009.6 1009.6 0.6
11/12:27pm 26.5 28.6 23.8 85 1.9 ENE 19 26 10 14 1009.6 1009.6 0.4
11/12:00pm 28.8 29.4 23.5 73 3.6 ESE 26 39 14 21 1009.7 1009.7 0.0
11/11:30am 31.4 30.2 21.6 56 6.6 SE 30 39 16 21 1009.5 1009.5 0.0
11/11:00am 32.1 31.8 21.9 54 6.9 SE 26 35 14 19 1009.8 1009.8 0.0
11/10:30am 32.0 32.9 23.3 60 6.0 SE 24 35 13 19 1010.1 1010.1 0.0
11/10:00am 31.7 31.7 22.4 58 6.4 SE 26 35 14 19 1010.3 1010.3 0.0
11/09:30am 30.3 31.1 22.5 63 5.3 SE 22 32 12 17 1010.3 1010.3 0.0
11/09:00am 30.6 30.9 23.0 64 5.2 SE 26 35 14 19 1010.6 1010.6 3.2
11/08:30am 29.6 29.7 22.6 66 4.8 SE 26 35 14 19 1010.5 1010.5 3.2
11/08:00am 28.6 30.0 22.8 71 4.0 SSE 20 28 11 15 1010.4 1010.4 3.2
11/07:30am 27.7 29.4 23.1 76 3.1 SSE 19 26 10 14 1010.1 1010.1 3.2
11/07:00am 26.5 27.8 22.6 79 2.6 SSE 20 28 11 15 1009.8 1009.8 3.2
11/06:30am 25.9 27.2 22.4 81 2.4 SSE 19 24 10 13 1009.8 1009.8 3.2
11/06:00am 25.5 27.2 22.4 83 2.1 SSE 17 26 9 14 1009.3 1009.3 3.2
11/05:30am 25.4 26.7 22.3 83 2.1 SSE 19 24 10 13 1009.1 1009.1 3.2
11/05:00am 25.5 27.2 22.4 83 2.1 SSE 17 24 9 13 1008.8 1008.8 3.2
11/04:30am 25.3 26.6 22.4 84 1.9 SSE 19 28 10 15 1008.7 1008.7 3.2
11/04:00am 25.2 27.1 22.7 86 1.7 SSE 17 24 9 13 1008.7 1008.7 3.2
11/03:30am 25.0 27.5 23.1 89 1.3 SSE 15 22 8 12 1008.9 1008.9 3.2
11/03:00am 25.4 27.4 22.9 86 1.7 SSE 17 24 9 13 1008.9 1008.9 3.2
11/02:30am 25.0 27.1 23.1 89 1.3 SE 17 26 9 14 1009.1 1009.1 3.2
11/02:00am 25.3 27.6 22.8 86 1.7 SSE 15 24 8 13 1009.1 1009.1 2.8
11/01:30am 25.6 27.5 22.7 84 2.0 SSE 17 22 9 12 1009.5 1009.5 2.8
11/01:00am 25.4 27.4 22.9 86 1.7 SSE 17 22 9 12 1010.0 1010.0 2.8
11/12:30am 25.8 27.8 22.9 84 2.0 SSE 17 26 9 14 1010.5 1010.5 2.8
11/12:00am 25.5 27.0 23.0 86 1.7 SSE 20 28 11 15 1011.0 1011.0 2.8
 
Date/Time
EST
Temp
°C
App
Temp
°C
Dew
Point
°C
Rel
Hum
%
Delta-T
°C
Wind Press
QNH
hPa
Press
MSL
hPa
Rain since
9am
mm
Dir  Spd
km/h
Gust
km/h
Spd
kts
Gust
kts
10/11:30pm 25.8 27.8 22.9 84 2.0 SSE 17 24 9 13 1011.4 1011.4 2.2
10/11:00pm 25.9 28.1 23.2 85 1.8 SSE 17 24 9 13 1011.8 1011.8 2.2
10/10:35pm 25.5 27.9 23.6 89 1.3 SSE 17 24 9 13 1012.0 1012.0 2.2
10/10:30pm 25.6 27.8 23.3 87 1.6 SSE 17 24 9 13 1011.9 1011.9 2.2
10/10:20pm 25.9 28.9 23.4 86 1.7 SSE 13 20 7 11 1011.9 1011.9 2.0
10/10:00pm 26.0 28.0 22.9 83 2.1 SSE 17 26 9 14 1011.9 1011.9 1.6
10/09:30pm 26.1 28.6 23.2 84 2.0 SSE 15 24 8 13 1011.8 1011.8 1.6
10/09:00pm 26.2 29.1 23.1 83 2.1 SSE 13 20 7 11 1011.4 1011.4 1.6
10/08:30pm 26.0 28.4 22.9 83 2.1 SSE 15 24 8 13 1011.3 1011.3 1.6

Other formats

Comma delimited format used in spreadsheet applications
http://www.bom.gov.au/fwo/IDQ60801/IDQ60801.94287.axf

JavaScript Object Notation format (JSON) in row-major order
http://www.bom.gov.au/fwo/IDQ60801/IDQ60801.94287.json

Data quality

Most of these data are generated automatically and are frequently updated. Quality checks on data are not normally performed. It is possible for incorrect values to appear. Refer to information at About Latest Weather Observations and please check the disclaimer before using these data.